createdAt,value
2022-08-17T00:01:00.479Z,99275.06
2022-08-17T00:03:41.131Z,99269.84
2022-08-17T00:06:08.600Z,99267.44
2022-08-17T00:08:51.643Z,99269.03
2022-08-17T00:11:28.873Z,99263.84
2022-08-17T00:14:04.914Z,99265.84
2022-08-17T00:17:21.198Z,99269.84
2022-08-17T00:19:59.921Z,99263.06
2022-08-17T00:22:30.907Z,99265.44
2022-08-17T00:25:02.687Z,99267.41
2022-08-17T00:27:29.311Z,99267.84
2022-08-17T00:29:55.993Z,99258.25
2022-08-17T00:33:14.307Z,99263.47
2022-08-17T00:35:23.633Z,99261.03
2022-08-17T00:37:51.484Z,99261.03
2022-08-17T00:40:19.132Z,99263.03
2022-08-17T00:42:47.927Z,99251.41
2022-08-17T00:45:16.802Z,99261.78
2022-08-17T00:47:44.115Z,99267.34
2022-08-17T00:50:33.402Z,99264.13
2022-08-17T00:53:43.932Z,99273.72
2022-08-17T00:56:17.194Z,99281.31
2022-08-17T00:58:43.883Z,99284.09
2022-08-17T01:01:11.255Z,99291.66
2022-08-17T01:03:39.287Z,99288.81
2022-08-17T01:06:07.899Z,99286.69
2022-08-17T01:08:57.575Z,99284.81
2022-08-17T01:11:24.661Z,99281.91
2022-08-17T01:13:51.537Z,99283.84
2022-08-17T01:16:30.801Z,99286.13
2022-08-17T01:19:01.360Z,99290.22
2022-08-17T01:21:48.174Z,99288.81
2022-08-17T01:25:23.861Z,99284.78
2022-08-17T01:28:12.457Z,99289.84
2022-08-17T01:31:03.142Z,99293.31
2022-08-17T01:33:30.055Z,99299.47
2022-08-17T01:35:57.316Z,99297.88
2022-08-17T01:38:27.089Z,99292.69
2022-08-17T01:40:59.041Z,99295.44
2022-08-17T01:43:51.031Z,99300.94
2022-08-17T01:46:27.281Z,99292.91
2022-08-17T01:48:56.346Z,99289.88
2022-08-17T01:51:23.623Z,99289.50
2022-08-17T01:53:57.459Z,99283.72
2022-08-17T01:56:25.761Z,99295.78
2022-08-17T01:58:58.387Z,99287.41
2022-08-17T02:04:32.061Z,99291.66
2022-08-17T02:06:58.704Z,99294.25
2022-08-17T02:09:30.214Z,99300.22
2022-08-17T02:11:59.233Z,99299.97
2022-08-17T02:14:26.746Z,99295.38
2022-08-17T02:16:54.216Z,99293.50
2022-08-17T02:19:21.932Z,99286.53
2022-08-17T02:21:51.174Z,99293.03
2022-08-17T02:25:00.749Z,99287.75
2022-08-17T02:27:20.237Z,99283.97
2022-08-17T02:29:46.885Z,99279.28
2022-08-17T02:32:27.532Z,99285.31
2022-08-17T02:35:09.835Z,99283.22
2022-08-17T02:37:36.851Z,99282.91
2022-08-17T02:40:04.774Z,99280.91
2022-08-17T02:42:38.361Z,99281.97
2022-08-17T02:45:11.196Z,99285.78
2022-08-17T02:47:38.669Z,99291.19
2022-08-17T02:50:16.453Z,99278.75
2022-08-17T02:53:04.821Z,99273.62
2022-08-17T02:55:35.393Z,99285.75
2022-08-17T02:58:03.672Z,99281.53
2022-08-17T03:00:34.497Z,99285.53
2022-08-17T03:03:03.193Z,99283.59
2022-08-17T03:05:32.028Z,99282.88
2022-08-17T03:08:13.202Z,99286.97
2022-08-17T03:10:41.395Z,99283.00
2022-08-17T03:13:08.032Z,99283.53
2022-08-17T03:15:35.208Z,99291.50
2022-08-17T03:18:03.624Z,99292.87
2022-08-17T03:20:32.993Z,99295.94
2022-08-17T03:23:29.579Z,99291.56
2022-08-17T03:29:19.959Z,99289.75
2022-08-17T03:31:49.374Z,99298.91
2022-08-17T03:34:16.762Z,99297.69
2022-08-17T03:36:43.772Z,99304.09
2022-08-17T03:39:10.684Z,99306.91
2022-08-17T03:44:19.927Z,99311.91
2022-08-17T03:47:12.479Z,99299.78
2022-08-17T03:49:57.703Z,99310.13
2022-08-17T03:52:42.765Z,99309.22
2022-08-17T03:55:35.962Z,99325.00
2022-08-17T03:58:21.722Z,99318.81
2022-08-17T04:01:12.932Z,99320.44
2022-08-17T04:03:39.631Z,99323.25
2022-08-17T04:06:06.823Z,99321.19
2022-08-17T04:08:33.474Z,99322.13
2022-08-17T04:11:01.281Z,99320.19
2022-08-17T04:13:27.896Z,99316.63
2022-08-17T04:15:54.598Z,99321.63
2022-08-17T04:18:29.951Z,99328.31
2022-08-17T04:20:56.578Z,99331.78
2022-08-17T04:23:28.371Z,99333.50
2022-08-17T04:25:55.163Z,99331.63
2022-08-17T04:28:21.802Z,99339.19
2022-08-17T04:30:48.447Z,99340.84
2022-08-17T04:34:19.722Z,99335.28
2022-08-17T04:37:02.689Z,99341.84
2022-08-17T04:39:29.422Z,99340.28
2022-08-17T04:42:09.246Z,99340.25
2022-08-17T04:44:37.494Z,99340.16
2022-08-17T04:47:05.127Z,99337.13
2022-08-17T04:49:32.743Z,99349.19
2022-08-17T04:52:04.350Z,99347.69
2022-08-17T04:54:31.780Z,99344.53
2022-08-17T04:56:58.392Z,99342.22
2022-08-17T04:59:24.990Z,99349.00
2022-08-17T05:01:52.569Z,99354.97
2022-08-17T05:04:34.616Z,99356.72
2022-08-17T05:07:02.204Z,99351.59
2022-08-17T05:09:29.138Z,99360.13
2022-08-17T05:11:56.304Z,99359.59
2022-08-17T05:14:33.152Z,99371.09
2022-08-17T05:17:01.176Z,99370.56
2022-08-17T05:19:28.637Z,99373.78
2022-08-17T05:21:55.285Z,99369.50
2022-08-17T05:24:42.673Z,99375.87
2022-08-17T05:27:08.505Z,99364.06
2022-08-17T05:29:35.699Z,99365.28
2022-08-17T05:32:38.951Z,99363.66
2022-08-17T05:35:02.114Z,99369.25
2022-08-17T05:37:28.785Z,99365.75
2022-08-17T05:39:55.493Z,99368.16
2022-08-17T05:42:22.661Z,99366.69
2022-08-17T05:44:49.307Z,99373.94
2022-08-17T05:47:16.391Z,99372.03
2022-08-17T05:49:43.002Z,99368.03
2022-08-17T05:52:19.862Z,99374.50
2022-08-17T05:55:12.850Z,99371.31
2022-08-17T05:58:03.607Z,99378.59
2022-08-17T06:00:48.766Z,99377.38
2022-08-17T06:03:23.166Z,99384.16
2022-08-17T06:06:17.463Z,99378.94
2022-08-17T06:09:03.245Z,99374.97
2022-08-17T06:11:45.636Z,99376.16
2022-08-17T06:14:30.060Z,99376.94
2022-08-17T06:17:02.659Z,99382.47
2022-08-17T06:19:37.096Z,99384.47
2022-08-17T06:28:14.734Z,99385.53
2022-08-17T06:31:00.373Z,99395.09
2022-08-17T06:33:35.191Z,99401.06
2022-08-17T06:36:30.706Z,99406.34
2022-08-17T06:38:57.284Z,99400.25
2022-08-17T06:41:49.654Z,99408.97
2022-08-17T06:44:49.876Z,99408.00
2022-08-17T06:47:15.639Z,99417.50
2022-08-17T06:50:14.526Z,99419.53
2022-08-17T06:52:56.463Z,99416.16
2022-08-17T06:55:38.043Z,99416.84
2022-08-17T06:58:16.200Z,99409.22
2022-08-17T07:00:47.192Z,99417.41
2022-08-17T07:03:37.808Z,99414.00
2022-08-17T07:06:23.757Z,99409.75
2022-08-17T07:08:58.415Z,99422.97
2022-08-17T07:12:05.393Z,99414.50
2022-08-17T07:14:59.702Z,99406.53
2022-08-17T07:17:46.731Z,99407.00
2022-08-17T07:20:23.384Z,99403.19
2022-08-17T07:23:08.710Z,99408.91
2022-08-17T07:25:35.610Z,99407.72
2022-08-17T07:28:07.101Z,99404.88
2022-08-17T07:30:49.818Z,99399.28
2022-08-17T07:33:23.972Z,99405.28
2022-08-17T07:35:50.788Z,99401.78
2022-08-17T07:38:27.780Z,99409.13
2022-08-17T07:40:58.027Z,99402.91
2022-08-17T07:43:33.050Z,99410.72
2022-08-17T07:46:23.357Z,99405.72
2022-08-17T07:48:54.552Z,99412.09
2022-08-17T07:51:28.278Z,99401.97
2022-08-17T07:54:13.548Z,99410.47
2022-08-17T07:56:55.079Z,99408.16
2022-08-17T07:59:24.694Z,99410.47
2022-08-17T08:01:57.490Z,99412.44
2022-08-17T08:05:01.324Z,99421.31
2022-08-17T08:07:35.027Z,99411.41
2022-08-17T08:10:31.186Z,99410.84
2022-08-17T08:13:06.966Z,99420.97
2022-08-17T08:15:54.071Z,99415.41
2022-08-17T08:18:53.867Z,99412.16
2022-08-17T08:21:24.399Z,99415.22
2022-08-17T08:24:06.202Z,99420.41
2022-08-17T08:26:40.895Z,99407.13
2022-08-17T08:29:32.171Z,99416.94
2022-08-17T08:32:11.771Z,99411.97
2022-08-17T08:35:01.428Z,99414.63
2022-08-17T08:37:44.355Z,99419.13
2022-08-17T08:41:04.844Z,99410.56
2022-08-17T08:43:38.122Z,99411.97
2022-08-17T08:46:40.996Z,99408.75
2022-08-17T08:50:01.844Z,99412.50
2022-08-17T08:52:57.088Z,99399.34
2022-08-17T08:55:34.446Z,99399.34
2022-08-17T09:02:29.621Z,99394.69
2022-08-17T09:05:29.021Z,99390.94
2022-08-17T09:08:04.405Z,99398.22
2022-08-17T09:10:44.386Z,99394.59
2022-08-17T09:13:36.243Z,99394.69
2022-08-17T09:16:15.323Z,99397.59
2022-08-17T09:19:03.034Z,99399.81
2022-08-17T09:24:21.180Z,99400.22
2022-08-17T09:26:59.661Z,99403.62
2022-08-17T09:29:34.415Z,99405.13
2022-08-17T09:32:04.737Z,99400.97
2022-08-17T09:45:24.215Z,99392.47
2022-08-17T09:47:57.464Z,99386.88
2022-08-17T09:51:03.314Z,99374.72
2022-08-17T09:53:31.981Z,99381.38
2022-08-17T09:56:26.821Z,99381.03
2022-08-17T09:59:27.452Z,99372.78
2022-08-17T10:02:48.236Z,99380.28
2022-08-17T10:05:25.444Z,99379.69
2022-08-17T10:08:09.286Z,99381.47
2022-08-17T10:10:52.248Z,99364.62
2022-08-17T10:13:32.967Z,99379.53
2022-08-17T10:19:55.657Z,99390.87
2022-08-17T10:22:53.086Z,99391.22
2022-08-17T10:25:54.557Z,99391.37
2022-08-17T10:28:29.797Z,99383.72
2022-08-17T10:31:31.059Z,99376.81
2022-08-17T10:34:21.121Z,99380.62
2022-08-17T10:36:50.500Z,99378.63
2022-08-17T10:39:52.123Z,99371.47
2022-08-17T10:42:35.621Z,99375.69
2022-08-17T10:45:15.780Z,99382.03
2022-08-17T10:48:04.682Z,99382.47
2022-08-17T10:50:51.764Z,99386.56
2022-08-17T10:53:33.482Z,99382.47
2022-08-17T10:56:12.055Z,99373.97
2022-08-17T10:58:54.963Z,99371.91
2022-08-17T11:01:50.107Z,99370.00
2022-08-17T11:04:17.756Z,99371.75
2022-08-17T11:06:53.856Z,99374.00
2022-08-17T11:09:43.123Z,99379.34
2022-08-17T11:12:35.676Z,99378.16
2022-08-17T11:15:41.355Z,99370.41
2022-08-17T11:18:37.264Z,99370.38
2022-08-17T11:21:32.170Z,99360.59
2022-08-17T11:24:18.972Z,99363.31
2022-08-17T11:27:01.904Z,99367.94
2022-08-17T11:29:53.090Z,99353.16
2022-08-17T11:32:47.396Z,99343.81
2022-08-17T11:35:23.447Z,99341.62
2022-08-17T11:38:16.012Z,99337.47
2022-08-17T11:41:11.105Z,99335.75
2022-08-17T11:43:56.321Z,99342.97
2022-08-17T11:47:14.958Z,99341.75
2022-08-17T11:50:24.560Z,99347.06
2022-08-17T11:52:54.607Z,99348.47
2022-08-17T11:55:38.246Z,99339.69
2022-08-17T11:58:27.096Z,99333.25
2022-08-17T12:01:00.897Z,99329.91
2022-08-17T12:03:37.072Z,99330.06
2022-08-17T12:06:30.971Z,99333.78
2022-08-17T12:09:12.156Z,99330.84
2022-08-17T12:12:01.708Z,99324.16
2022-08-17T12:15:05.645Z,99315.63
2022-08-17T12:17:50.248Z,99316.72
2022-08-17T12:20:19.750Z,99306.91
2022-08-17T12:23:27.612Z,99308.47
2022-08-17T12:26:21.146Z,99309.56
2022-08-17T12:28:57.379Z,99308.91
2022-08-17T12:31:35.554Z,99308.00
2022-08-17T12:34:04.733Z,99306.00
2022-08-17T12:36:33.465Z,99300.50
2022-08-17T12:39:12.821Z,99295.97
2022-08-17T12:41:44.225Z,99305.91
2022-08-17T12:44:19.601Z,99306.25
2022-08-17T12:47:19.341Z,99302.63
2022-08-17T12:49:53.865Z,99301.34
2022-08-17T12:52:25.335Z,99298.50
2022-08-17T12:55:07.048Z,99296.12
2022-08-17T12:57:47.791Z,99295.03
2022-08-17T13:00:23.320Z,99295.19
2022-08-17T13:02:52.317Z,99296.25
2022-08-17T13:05:34.061Z,99292.09
2022-08-17T13:08:01.315Z,99292.19
2022-08-17T13:10:32.793Z,99288.88
2022-08-17T13:13:04.556Z,99291.09
2022-08-17T13:15:38.188Z,99289.03
2022-08-17T13:18:39.634Z,99287.00
2022-08-17T13:21:12.230Z,99286.06
2022-08-17T13:23:38.926Z,99289.97
2022-08-17T13:26:15.964Z,99285.56
2022-08-17T13:28:51.736Z,99288.09
2022-08-17T13:31:32.381Z,99288.38
2022-08-17T13:34:26.932Z,99287.75
2022-08-17T13:37:26.360Z,99284.13
2022-08-17T13:40:07.481Z,99281.81
2022-08-17T13:42:51.763Z,99284.78
2022-08-17T13:45:36.156Z,99285.03
2022-08-17T13:48:13.893Z,99270.69
2022-08-17T13:51:15.440Z,99274.81
2022-08-17T13:53:42.057Z,99273.88
2022-08-17T13:56:33.459Z,99280.91
2022-08-17T13:59:07.231Z,99288.88
2022-08-17T14:01:39.480Z,99280.81
2022-08-17T14:04:09.971Z,99278.78
2022-08-17T14:06:52.526Z,99269.31
2022-08-17T14:09:25.370Z,99270.72
2022-08-17T14:11:54.156Z,99265.66
2022-08-17T14:14:23.264Z,99259.25
2022-08-17T14:16:51.573Z,99269.78
2022-08-17T14:19:18.547Z,99269.00
2022-08-17T14:21:47.137Z,99270.63
2022-08-17T14:24:35.518Z,99269.09
2022-08-17T14:27:04.308Z,99272.97
2022-08-17T14:29:33.348Z,99276.37
2022-08-17T14:32:06.642Z,99269.78
2022-08-17T14:34:33.319Z,99264.78
2022-08-17T14:37:00.004Z,99266.72
2022-08-17T14:39:26.647Z,99267.09
2022-08-17T14:41:53.371Z,99278.03
2022-08-17T14:44:20.018Z,99272.06
2022-08-17T14:46:47.997Z,99267.41
2022-08-17T14:49:15.686Z,99273.41
2022-08-17T14:51:44.396Z,99268.69
2022-08-17T14:54:33.461Z,99256.38
2022-08-17T14:57:23.392Z,99264.34
2022-08-17T14:59:47.491Z,99257.50
2022-08-17T15:02:19.384Z,99261.56
2022-08-17T15:04:47.733Z,99257.72
2022-08-17T15:07:17.906Z,99255.34
2022-08-17T15:09:44.519Z,99261.63
2022-08-17T15:12:18.126Z,99261.87
2022-08-17T15:14:44.815Z,99256.28
2022-08-17T15:17:11.562Z,99259.69
2022-08-17T15:19:38.176Z,99258.00
2022-08-17T15:22:04.923Z,99250.22
2022-08-17T15:24:31.589Z,99252.75
2022-08-17T15:26:58.239Z,99258.00
2022-08-17T15:29:24.847Z,99260.50
2022-08-17T15:31:51.940Z,99258.94
2022-08-17T15:34:18.588Z,99260.72
2022-08-17T15:36:55.407Z,99249.91
2022-08-17T15:39:22.169Z,99253.31
2022-08-17T15:41:58.422Z,99251.78
2022-08-17T15:44:32.428Z,99257.06
2022-08-17T15:47:02.121Z,99254.31
2022-08-17T15:49:28.959Z,99259.50
2022-08-17T15:51:55.574Z,99266.31
2022-08-17T15:54:23.401Z,99264.69
2022-08-17T15:56:50.875Z,99261.50
2022-08-17T15:59:17.844Z,99259.06
2022-08-17T16:03:01.500Z,99257.69
2022-08-17T16:04:30.071Z,99262.25
2022-08-17T16:06:58.741Z,99264.38
2022-08-17T16:09:25.361Z,99265.94
2022-08-17T16:11:53.895Z,99265.28
2022-08-17T16:14:22.659Z,99257.59
2022-08-17T16:16:50.874Z,99261.97
2022-08-17T16:19:17.574Z,99261.03
2022-08-17T16:21:44.257Z,99263.59
2022-08-17T16:24:13.275Z,99258.06
2022-08-17T16:26:42.063Z,99252.31
2022-08-17T16:29:08.857Z,99257.75
2022-08-17T16:31:37.591Z,99253.66
2022-08-17T16:34:17.069Z,99253.28
2022-08-17T16:36:54.886Z,99244.63
2022-08-17T16:39:33.090Z,99249.09
2022-08-17T16:42:01.373Z,99250.19
2022-08-17T16:44:30.952Z,99238.56
2022-08-17T16:47:00.110Z,99247.37
2022-08-17T16:49:36.874Z,99248.22
2022-08-17T16:52:10.072Z,99239.37
2022-08-17T16:54:40.157Z,99241.19
2022-08-17T16:57:07.006Z,99242.19
2022-08-17T16:59:40.896Z,99241.06
2022-08-17T17:02:10.979Z,99249.38
2022-08-17T17:04:52.050Z,99251.69
2022-08-17T17:07:37.480Z,99250.16
2022-08-17T17:10:15.919Z,99248.25
2022-08-17T17:13:02.715Z,99253.13
2022-08-17T17:15:51.747Z,99252.78
2022-08-17T17:18:26.484Z,99255.69
2022-08-17T17:21:00.576Z,99262.25
2022-08-17T17:23:37.803Z,99264.56
2022-08-17T17:26:33.782Z,99259.81
2022-08-17T17:29:22.121Z,99258.81
2022-08-17T17:32:04.545Z,99260.72
2022-08-17T17:34:36.241Z,99269.47
2022-08-17T17:37:12.562Z,99276.28
2022-08-17T17:40:01.858Z,99273.22
2022-08-17T17:42:31.771Z,99279.81
2022-08-17T17:45:09.475Z,99282.16
2022-08-17T17:47:36.838Z,99279.13
2022-08-17T17:50:06.431Z,99281.03
2022-08-17T17:52:37.812Z,99288.88
2022-08-17T17:55:07.896Z,99288.16
2022-08-17T17:58:01.974Z,99289.72
2022-08-17T18:00:37.856Z,99288.22
2022-08-17T18:03:39.732Z,99291.87
2022-08-17T18:06:16.309Z,99296.38
2022-08-17T18:08:52.851Z,99294.81
2022-08-17T18:11:25.944Z,99297.44
2022-08-17T18:15:10.366Z,99300.50
2022-08-17T18:17:38.683Z,99299.59
2022-08-17T18:20:07.021Z,99302.34
2022-08-17T18:22:34.163Z,99312.38
2022-08-17T18:25:00.951Z,99314.84
2022-08-17T18:27:51.119Z,99321.72
2022-08-17T18:30:17.838Z,99316.00
2022-08-17T18:32:46.668Z,99320.84
2022-08-17T18:35:16.159Z,99331.44
2022-08-17T18:37:52.071Z,99332.75
2022-08-17T18:40:21.585Z,99340.50
2022-08-17T18:43:00.378Z,99338.56
2022-08-17T18:45:35.774Z,99349.31
2022-08-17T18:48:03.175Z,99340.22
2022-08-17T18:50:41.213Z,99343.25
2022-08-17T18:53:35.518Z,99336.16
2022-08-17T18:56:31.425Z,99337.97
2022-08-17T18:59:04.430Z,99354.13
2022-08-17T19:02:11.592Z,99343.50
2022-08-17T19:04:55.722Z,99336.69
2022-08-17T19:07:22.502Z,99338.28
2022-08-17T19:09:52.907Z,99340.34
2022-08-17T19:12:38.355Z,99345.13
2022-08-17T19:15:07.987Z,99348.41
2022-08-17T19:18:00.720Z,99345.50
2022-08-17T19:20:27.161Z,99346.72
2022-08-17T19:23:14.233Z,99350.81
2022-08-17T19:25:49.238Z,99345.41
2022-08-17T19:28:24.895Z,99342.41
2022-08-17T19:36:38.855Z,99356.47
2022-08-17T19:39:51.811Z,99352.56
2022-08-17T19:42:52.531Z,99345.97
2022-08-17T19:45:49.600Z,99351.00
2022-08-17T19:48:37.653Z,99351.56
2022-08-17T19:51:11.565Z,99350.81
2022-08-17T19:54:05.064Z,99350.28
2022-08-17T19:56:50.658Z,99346.59
2022-08-17T19:59:48.979Z,99354.00
2022-08-17T20:02:41.928Z,99351.75
2022-08-17T20:05:29.159Z,99343.06
2022-08-17T20:08:06.211Z,99346.88
2022-08-17T20:10:55.421Z,99343.19
2022-08-17T20:13:35.183Z,99339.09
2022-08-17T20:16:03.469Z,99338.03
2022-08-17T20:18:36.760Z,99329.22
2022-08-17T20:21:20.395Z,99334.69
2022-08-17T20:24:13.082Z,99337.25
2022-08-17T20:26:59.289Z,99336.31
2022-08-17T20:29:55.338Z,99335.66
2022-08-17T20:32:29.696Z,99332.16
2022-08-17T20:35:04.292Z,99331.00
2022-08-17T20:37:34.386Z,99332.41
2022-08-17T20:40:01.084Z,99335.59
2022-08-17T20:42:31.587Z,99334.75
2022-08-17T20:45:05.655Z,99335.50
2022-08-17T20:47:55.171Z,99328.44
2022-08-17T20:50:35.522Z,99332.50
2022-08-17T20:53:05.198Z,99326.66
2022-08-17T20:55:51.563Z,99328.56
2022-08-17T20:58:30.845Z,99332.13
2022-08-17T21:00:57.651Z,99331.41
2022-08-17T21:03:24.392Z,99331.28
2022-08-17T21:06:17.626Z,99328.22
2022-08-17T21:09:07.059Z,99337.66
2022-08-17T21:11:57.010Z,99335.19
2022-08-17T21:14:52.210Z,99338.56
2022-08-17T21:17:29.583Z,99338.28
2022-08-17T21:20:17.150Z,99334.78
2022-08-17T21:22:49.467Z,99332.47
2022-08-17T21:25:19.146Z,99332.00
2022-08-17T21:27:54.580Z,99340.78
2022-08-17T21:30:41.471Z,99333.91
2022-08-17T21:33:16.866Z,99335.84
2022-08-17T21:35:52.366Z,99346.56
2022-08-17T21:38:23.618Z,99352.59
2022-08-17T21:40:53.174Z,99344.38
2022-08-17T21:43:29.333Z,99343.66
2022-08-17T21:46:10.457Z,99346.56
2022-08-17T21:48:49.329Z,99347.00
2022-08-17T21:51:26.145Z,99358.16
2022-08-17T21:54:05.753Z,99356.91
2022-08-17T21:56:38.901Z,99353.69
2022-08-17T21:59:44.290Z,99353.34
2022-08-17T22:02:24.793Z,99358.16
2022-08-17T22:05:13.068Z,99354.56
2022-08-17T22:07:45.174Z,99368.53
2022-08-17T22:10:30.471Z,99372.91
2022-08-17T22:13:21.383Z,99374.53
2022-08-17T22:16:15.364Z,99374.97
2022-08-17T22:18:57.707Z,99375.34
2022-08-17T22:21:25.213Z,99375.37
2022-08-17T22:24:04.567Z,99380.53
2022-08-17T22:27:00.110Z,99388.94
2022-08-17T22:29:47.916Z,99382.97
2022-08-17T22:32:38.002Z,99386.06
2022-08-17T22:35:26.752Z,99382.56
2022-08-17T22:37:53.356Z,99393.34
2022-08-17T22:40:33.698Z,99396.94
2022-08-17T22:43:03.388Z,99394.78
2022-08-17T22:45:30.432Z,99391.31
2022-08-17T22:48:38.702Z,99387.69
2022-08-17T22:51:28.639Z,99402.56
2022-08-17T22:54:18.841Z,99394.88
2022-08-17T22:57:22.918Z,99395.62
2022-08-17T22:59:51.028Z,99396.81
2022-08-17T23:02:33.552Z,99398.31
2022-08-17T23:05:10.118Z,99407.59
2022-08-17T23:07:52.449Z,99413.97
2022-08-17T23:10:19.461Z,99416.72
2022-08-17T23:12:46.555Z,99431.47
2022-08-17T23:15:17.003Z,99437.81
2022-08-17T23:17:45.316Z,99432.47
2022-08-17T23:20:15.118Z,99431.50
2022-08-17T23:23:28.793Z,99438.72
2022-08-17T23:26:18.647Z,99449.81
2022-08-17T23:28:45.813Z,99439.47
2022-08-17T23:31:16.473Z,99434.94
2022-08-17T23:33:43.440Z,99426.94
2022-08-17T23:36:15.944Z,99429.25
2022-08-17T23:38:46.826Z,99429.84
2022-08-17T23:41:18.520Z,99418.38
2022-08-17T23:43:47.766Z,99418.09
2022-08-17T23:46:14.616Z,99420.91
2022-08-17T23:48:41.436Z,99421.06
2022-08-17T23:51:12.530Z,99409.47
2022-08-17T23:53:44.097Z,99400.59
2022-08-17T23:56:23.228Z,99409.56
2022-08-17T23:58:49.814Z,99411.59
